Time;durP1;ratioP1;P1;durP2;ratioP2;P2;SDS_P1;SDS_P2;PMS_P1;PMS_P2;Temp;Humidity;BMP_temperature;BMP_pressure;BME280_temperature;BME280_humidity;BME280_pressure;Samples;Min_cycle;Max_cycle;Signal;HPM_P1;HPM_P2
2023/05/08 00:02:25;;;;;;;1.60;0.40;;;;;;;8.55;100.00;100630.62;105640;1253;62141;-46
2023/05/08 00:04:52;;;;;;;2.90;0.40;;;;;;;8.56;100.00;100624.52;105969;1256;75676;-48
2023/05/08 00:07:19;;;;;;;0.50;0.40;;;;;;;8.57;100.00;100626.98;105743;1256;67575;-48
2023/05/08 00:09:46;;;;;;;0.60;0.40;;;;;;;8.56;100.00;100623.42;105382;1253;73773;-47
2023/05/08 00:12:13;;;;;;;0.70;0.40;;;;;;;8.56;100.00;100622.54;105364;1258;61484;-47
2023/05/08 00:14:40;;;;;;;1.70;0.40;;;;;;;8.53;100.00;100624.21;105295;1258;60660;-45
2023/05/08 00:17:06;;;;;;;0.60;0.30;;;;;;;8.52;100.00;100627.81;105505;1252;76085;-45
2023/05/08 00:19:33;;;;;;;2.20;0.40;;;;;;;8.52;100.00;100626.21;105433;1254;66000;-46
2023/05/08 00:22:00;;;;;;;1.90;0.40;;;;;;;8.51;100.00;100625.70;105459;1259;71726;-48
2023/05/08 00:24:27;;;;;;;3.20;0.40;;;;;;;8.49;100.00;100621.11;105437;1257;61862;-48
2023/05/08 00:26:53;;;;;;;0.60;0.30;;;;;;;8.47;100.00;100623.14;105375;1259;60429;-49
2023/05/08 00:29:20;;;;;;;1.60;0.30;;;;;;;8.46;100.00;100623.70;105412;1253;75073;-46
2023/05/08 00:31:47;;;;;;;1.80;0.30;;;;;;;8.46;100.00;100624.05;105326;1257;67716;-48
2023/05/08 00:34:14;;;;;;;0.70;0.40;;;;;;;8.46;100.00;100621.38;105482;1260;73183;-47
2023/05/08 00:36:40;;;;;;;1.00;0.40;;;;;;;8.45;100.00;100622.63;105323;1259;60535;-46
2023/05/08 00:39:07;;;;;;;0.60;0.40;;;;;;;8.45;100.00;100620.67;105401;1259;60689;-47
2023/05/08 00:41:34;;;;;;;0.70;0.40;;;;;;;8.45;100.00;100620.86;105407;1259;73450;-48
2023/05/08 00:44:01;;;;;;;1.50;0.30;;;;;;;8.43;100.00;100618.92;105273;1259;69468;-48
2023/05/08 00:46:28;;;;;;;0.80;0.40;;;;;;;8.42;100.00;100620.40;109010;1254;73107;-47
2023/05/08 00:48:54;;;;;;;1.00;0.40;;;;;;;8.40;100.00;100625.10;109028;1258;59938;-48
2023/05/08 00:51:22;;;;;;;0.60;0.40;;;;;;;8.37;100.00;100628.58;109061;1255;59686;-46
2023/05/08 00:53:48;;;;;;;0.80;0.30;;;;;;;8.34;100.00;100632.95;107925;1259;75775;-45
2023/05/08 00:56:15;;;;;;;0.90;0.40;;;;;;;8.33;100.00;100635.64;105341;1262;68352;-47
2023/05/08 00:58:42;;;;;;;1.60;0.40;;;;;;;8.33;100.00;100638.31;105349;1259;75549;-49
2023/05/08 01:01:09;;;;;;;1.80;0.50;;;;;;;8.34;100.00;100636.85;105290;1255;60433;-46
2023/05/08 01:03:36;;;;;;;1.00;0.40;;;;;;;8.35;100.00;100635.77;108949;1254;60431;-48
2023/05/08 01:06:04;;;;;;;1.60;0.40;;;;;;;8.35;100.00;100640.78;108880;1254;74410;-48
2023/05/08 01:08:30;;;;;;;1.10;0.40;;;;;;;8.33;100.00;100642.81;109075;1253;68378;-47
2023/05/08 01:11:14;;;;;;;0.80;0.30;;;;;;;8.32;100.00;100644.45;109073;1254;73151;-47
2023/05/08 01:13:56;;;;;;;0.80;0.30;;;;;;;8.30;100.00;100643.56;108947;1259;61911;-48
2023/05/08 01:16:45;;;;;;;0.60;0.40;;;;;;;8.30;100.00;100648.93;108725;1260;61754;-46
2023/05/08 01:19:50;;;;;;;0.40;0.30;;;;;;;8.32;100.00;100649.82;105347;1257;72689;-48
2023/05/08 01:22:42;;;;;;;2.80;0.30;;;;;;;8.34;100.00;100655.12;105386;1259;68961;-47
2023/05/08 01:25:28;;;;;;;2.30;0.70;;;;;;;8.33;100.00;100660.51;105277;1261;71630;-48
2023/05/08 01:28:22;;;;;;;0.80;0.50;;;;;;;8.34;100.00;100662.46;105286;1257;61933;-45
2023/05/08 01:30:55;;;;;;;0.50;0.40;;;;;;;8.33;100.00;100664.61;105264;1266;60422;-48
2023/05/08 01:33:44;;;;;;;0.50;0.40;;;;;;;8.32;100.00;100667.15;105290;1257;74250;-43
2023/05/08 01:36:16;;;;;;;0.90;0.40;;;;;;;8.31;100.00;100670.39;106337;1254;68786;-47
2023/05/08 01:38:52;;;;;;;0.80;0.40;;;;;;;8.29;100.00;100670.75;105433;1259;71694;-46
2023/05/08 01:41:25;;;;;;;1.00;0.50;;;;;;;8.30;100.00;100672.55;105401;1256;60428;-46
2023/05/08 01:44:17;;;;;;;0.40;0.30;;;;;;;8.28;100.00;100674.16;105452;1253;60807;-47
2023/05/08 01:46:45;;;;;;;1.90;0.40;;;;;;;8.27;100.00;100676.70;105432;1259;72068;-48
2023/05/08 01:49:22;;;;;;;0.70;0.40;;;;;;;8.26;100.00;100673.17;105483;1255;68465;-47
2023/05/08 01:51:55;;;;;;;0.80;0.50;;;;;;;8.22;100.00;100672.56;105628;1262;74650;-46
2023/05/08 01:54:24;;;;;;;0.60;0.40;;;;;;;8.19;100.00;100672.79;105449;1260;61587;-43
2023/05/08 01:56:52;;;;;;;2.90;0.40;;;;;;;8.16;100.00;100673.95;106318;1259;61664;-45
2023/05/08 01:59:20;;;;;;;0.50;0.40;;;;;;;8.14;100.00;100680.42;105401;1254;75260;-45
2023/05/08 02:01:47;;;;;;;0.50;0.30;;;;;;;8.12;100.00;100681.55;105664;1254;68692;-44
2023/05/08 02:04:14;;;;;;;3.50;0.40;;;;;;;8.09;100.00;100682.14;105793;1254;73430;-48
2023/05/08 02:06:41;;;;;;;0.60;0.40;;;;;;;8.08;100.00;100685.94;105119;1258;60524;-44
2023/05/08 02:09:08;;;;;;;4.10;0.40;;;;;;;8.08;100.00;100687.56;105058;1254;218030;-46
2023/05/08 02:13:09;;;;;;;2.20;0.60;;;;;;;8.10;100.00;100693.39;102289;1296;600609;-48
2023/05/08 02:15:36;;;;;;;0.90;0.40;;;;;;;8.08;100.00;100690.95;104581;1269;60308;-46
2023/05/08 02:18:06;;;;;;;1.20;0.40;;;;;;;8.07;100.00;100694.71;104755;1266;60137;-49
2023/05/08 02:20:33;;;;;;;0.50;0.40;;;;;;;8.06;100.00;100695.83;104825;1270;72114;-47
2023/05/08 02:23:00;;;;;;;2.30;0.40;;;;;;;8.03;100.00;100699.82;104500;1273;68921;-48
2023/05/08 02:25:27;;;;;;;0.90;0.40;;;;;;;8.01;100.00;100696.64;104354;1271;72523;-49
2023/05/08 02:27:53;;;;;;;0.60;0.40;;;;;;;8.00;100.00;100698.96;104516;1263;159969;-48
2023/05/08 02:30:20;;;;;;;2.20;0.40;;;;;;;7.98;100.00;100694.92;104652;1270;59860;-48
2023/05/08 02:32:47;;;;;;;0.90;0.40;;;;;;;7.99;100.00;100700.60;104686;1268;73734;-47
2023/05/08 02:35:16;;;;;;;0.50;0.40;;;;;;;7.98;100.00;100701.73;104602;1263;67799;-48
2023/05/08 02:37:44;;;;;;;1.10;0.50;;;;;;;7.97;100.00;100704.06;104976;1264;73627;-46
2023/05/08 02:40:10;;;;;;;3.20;0.30;;;;;;;7.96;100.00;100708.56;104681;1267;61064;-48
2023/05/08 02:42:38;;;;;;;0.80;0.40;;;;;;;7.93;100.00;100711.65;104757;1261;60775;-44
2023/05/08 02:45:05;;;;;;;3.60;0.50;;;;;;;7.92;100.00;100713.09;104640;1262;72801;-47
2023/05/08 02:47:37;;;;;;;1.30;0.40;;;;;;;7.92;100.00;100717.75;105083;1263;69793;-47
2023/05/08 02:50:35;;;;;;;0.50;0.30;;;;;;;7.90;100.00;100720.49;104784;1261;72872;-47
2023/05/08 02:53:04;;;;;;;1.30;0.30;;;;;;;7.89;100.00;100725.14;104809;1261;60453;-46
2023/05/08 02:55:52;;;;;;;0.60;0.40;;;;;;;7.90;100.00;100723.72;105112;1260;60521;-48
2023/05/08 02:58:23;;;;;;;0.80;0.40;;;;;;;7.91;100.00;100733.31;104915;1266;73214;-47
2023/05/08 03:00:57;;;;;;;0.60;0.40;;;;;;;7.92;100.00;100737.04;104759;1265;71057;-46
2023/05/08 03:03:26;;;;;;;1.30;0.60;;;;;;;7.94;100.00;100735.04;105042;1263;74236;-48
2023/05/08 03:05:54;;;;;;;4.50;0.40;;;;;;;7.95;100.00;100739.13;104961;1265;61949;-47
2023/05/08 03:08:29;;;;;;;2.60;0.40;;;;;;;7.97;100.00;100743.39;106222;1262;60162;-48
2023/05/08 03:10:58;;;;;;;1.90;0.30;;;;;;;7.97;100.00;100746.79;104843;1262;72306;-47
2023/05/08 03:13:27;;;;;;;0.60;0.30;;;;;;;7.94;100.00;100757.20;104585;1269;68113;-49
2023/05/08 03:15:55;;;;;;;2.20;0.30;;;;;;;7.92;100.00;100756.89;105240;1260;73642;-47
2023/05/08 03:18:27;;;;;;;1.00;0.50;;;;;;;7.90;100.00;100762.86;106536;1265;59653;-49
2023/05/08 03:20:55;;;;;;;1.10;0.40;;;;;;;7.91;100.00;100761.74;104687;1261;61809;-46
2023/05/08 03:23:22;;;;;;;1.70;0.40;;;;;;;7.93;100.00;100765.97;104673;1262;74116;-47
2023/05/08 03:25:49;;;;;;;0.60;0.40;;;;;;;7.95;100.00;100771.65;108594;1260;69138;-49
2023/05/08 03:28:16;;;;;;;0.60;0.30;;;;;;;7.97;100.00;100771.63;108426;1262;73889;-49
2023/05/08 03:30:42;;;;;;;4.70;0.30;;;;;;;7.98;100.00;100776.97;105398;1267;61808;-47
2023/05/08 03:33:12;;;;;;;1.10;0.40;;;;;;;7.98;100.00;100778.41;108445;1261;62452;-47
2023/05/08 03:35:38;;;;;;;0.40;0.30;;;;;;;7.95;100.00;100777.38;108441;1260;73061;-49
2023/05/08 03:38:07;;;;;;;6.50;0.40;;;;;;;7.95;100.00;100780.95;108451;1262;66888;-48
2023/05/08 03:40:37;;;;;;;1.20;0.40;;;;;;;7.96;100.00;100780.23;106171;1262;74618;-47
2023/05/08 03:43:07;;;;;;;1.30;0.30;;;;;;;7.95;100.00;100781.50;108438;1260;61730;-46
2023/05/08 03:45:35;;;;;;;0.60;0.40;;;;;;;7.96;100.00;100783.27;108375;1267;61570;-47
2023/05/08 03:48:04;;;;;;;2.00;0.40;;;;;;;7.97;100.00;100785.73;107629;1261;74330;-47
2023/05/08 03:50:34;;;;;;;1.30;0.50;;;;;;;8.00;100.00;100786.20;108523;1260;68828;-48
2023/05/08 03:53:01;;;;;;;1.00;0.30;;;;;;;8.03;100.00;100785.80;108568;1262;72859;-45
2023/05/08 03:55:29;;;;;;;4.50;0.40;;;;;;;8.06;100.00;100789.67;108549;1262;59212;-45
2023/05/08 03:58:07;;;;;;;0.80;0.40;;;;;;;8.07;100.00;100791.60;108496;1261;62308;-46
2023/05/08 04:00:56;;;;;;;1.20;0.40;;;;;;;8.09;100.00;100796.91;108534;1260;73918;-47
2023/05/08 04:03:40;;;;;;;0.50;0.30;;;;;;;8.10;100.00;100801.55;108442;1261;69840;-47
2023/05/08 04:06:13;;;;;;;0.70;0.30;;;;;;;8.13;100.00;100803.29;108437;1261;75125;-46
2023/05/08 04:08:54;;;;;;;1.30;0.40;;;;;;;8.15;100.00;100806.63;108357;1261;60764;-46
2023/05/08 04:11:29;;;;;;;0.60;0.40;;;;;;;8.18;100.00;100805.30;108290;1262;59306;-46
2023/05/08 04:14:02;;;;;;;2.00;0.30;;;;;;;8.21;100.00;100799.70;107115;1263;71868;-47
2023/05/08 04:16:31;;;;;;;0.50;0.40;;;;;;;8.22;100.00;100801.47;105330;1262;69123;-48
2023/05/08 04:19:01;;;;;;;0.50;0.30;;;;;;;8.23;100.00;100805.73;105042;1266;75826;-49
2023/05/08 04:21:28;;;;;;;0.60;0.30;;;;;;;8.27;100.00;100804.38;106252;1261;60808;-46
2023/05/08 04:23:55;;;;;;;1.80;0.30;;;;;;;8.31;100.00;100804.51;104687;1268;61210;-47
2023/05/08 04:26:22;;;;;;;0.40;0.20;;;;;;;8.36;100.00;100801.35;106114;1262;73182;-47
2023/05/08 04:28:49;;;;;;;1.10;0.40;;;;;;;8.40;100.00;100805.58;104910;1262;69351;-47
2023/05/08 04:31:16;;;;;;;1.50;0.50;;;;;;;8.41;100.00;100803.78;104809;1263;75138;-48
2023/05/08 04:33:43;;;;;;;3.00;0.40;;;;;;;8.42;100.00;100803.20;104965;1268;59759;-48
2023/05/08 04:36:12;;;;;;;0.50;0.30;;;;;;;8.43;100.00;100806.02;104864;1261;59731;-47
2023/05/08 04:38:39;;;;;;;2.10;0.30;;;;;;;8.44;100.00;100807.27;104882;1262;74541;-48
2023/05/08 04:41:07;;;;;;;2.60;0.40;;;;;;;8.45;100.00;100810.46;105536;1265;70231;-45
2023/05/08 04:43:34;;;;;;;2.40;0.40;;;;;;;8.49;100.00;100814.86;104748;1266;73619;-46
2023/05/08 04:46:01;;;;;;;0.70;0.40;;;;;;;8.51;100.00;100810.84;105814;1262;59857;-47
2023/05/08 04:48:31;;;;;;;3.40;0.40;;;;;;;8.55;100.00;100811.84;105510;1263;62357;-47
2023/05/08 04:50:59;;;;;;;1.10;0.30;;;;;;;8.59;100.00;100817.27;104851;1260;71061;-46
2023/05/08 04:53:26;;;;;;;1.90;0.40;;;;;;;8.61;100.00;100818.84;104687;1262;68538;-47
2023/05/08 04:55:52;;;;;;;2.70;0.30;;;;;;;8.60;100.00;100819.23;104924;1263;73497;-45
2023/05/08 04:58:19;;;;;;;3.40;0.40;;;;;;;8.60;100.00;100821.73;104944;1265;59736;-44
2023/05/08 05:00:46;;;;;;;1.90;0.40;;;;;;;8.63;100.00;100823.81;104838;1267;61040;-46
2023/05/08 05:03:13;;;;;;;0.80;0.40;;;;;;;8.63;100.00;100825.41;104933;1265;74818;-45
2023/05/08 05:05:40;;;;;;;1.90;0.30;;;;;;;8.66;100.00;100827.14;104743;1268;68709;-46
2023/05/08 05:08:06;;;;;;;2.90;0.40;;;;;;;8.71;100.00;100825.77;104815;1267;73401;-47
2023/05/08 05:10:33;;;;;;;0.50;0.40;;;;;;;8.75;100.00;100827.46;104359;1262;59619;-49
2023/05/08 05:13:00;;;;;;;0.50;0.30;;;;;;;8.80;100.00;100827.16;104400;1262;60334;-48
2023/05/08 05:15:27;;;;;;;0.60;0.40;;;;;;;8.85;100.00;100829.18;104382;1262;73831;-44
2023/05/08 05:17:54;;;;;;;3.50;0.40;;;;;;;8.91;100.00;100827.27;104617;1263;70230;-47
2023/05/08 05:20:21;;;;;;;3.40;0.40;;;;;;;8.96;100.00;100827.30;104950;1263;75056;-46
2023/05/08 05:22:48;;;;;;;3.90;0.40;;;;;;;8.99;100.00;100822.95;104770;1267;60737;-48
2023/05/08 05:25:15;;;;;;;1.80;0.20;;;;;;;9.00;100.00;100825.06;104174;1267;61175;-48
2023/05/08 05:27:42;;;;;;;1.50;0.40;;;;;;;9.06;100.00;100825.81;104062;1268;73324;-44
2023/05/08 05:30:09;;;;;;;0.90;0.30;;;;;;;9.12;100.00;100826.02;104833;1263;68725;-46
2023/05/08 05:32:36;;;;;;;1.00;0.40;;;;;;;9.18;100.00;100826.05;104581;1263;75001;-47
2023/05/08 05:35:04;;;;;;;0.80;0.50;;;;;;;9.20;100.00;100822.05;104391;1263;59723;-48
2023/05/08 05:37:31;;;;;;;0.50;0.40;;;;;;;9.20;100.00;100819.91;104761;1261;62283;-47
2023/05/08 05:39:57;;;;;;;1.30;0.30;;;;;;;9.20;100.00;100821.16;104847;1263;71768;-47
2023/05/08 05:42:24;;;;;;;3.20;0.50;;;;;;;9.23;100.00;100823.23;104809;1263;67272;-46
2023/05/08 05:44:52;;;;;;;3.60;0.80;;;;;;;9.21;100.00;100824.35;104863;1262;73409;-46
2023/05/08 05:47:19;;;;;;;3.50;0.40;;;;;;;9.19;100.00;100825.45;104286;1268;59756;-45
2023/05/08 05:49:46;;;;;;;3.30;0.40;;;;;;;9.22;100.00;100825.77;104629;1268;60287;-48
2023/05/08 05:52:13;;;;;;;4.00;0.40;;;;;;;9.21;100.00;100819.34;104685;1265;74757;-48
2023/05/08 05:54:41;;;;;;;3.70;0.50;;;;;;;9.18;100.00;100822.46;104800;1265;68251;-46
2023/05/08 05:57:08;;;;;;;3.20;0.50;;;;;;;9.18;100.00;100822.65;104953;1263;71819;-45
2023/05/08 05:59:35;;;;;;;2.00;0.50;;;;;;;9.15;100.00;100818.95;104009;1267;60337;-45
2023/05/08 06:02:02;;;;;;;1.10;0.50;;;;;;;9.16;100.00;100814.98;105048;1268;63007;-48
2023/05/08 06:04:29;;;;;;;5.10;0.50;;;;;;;9.19;100.00;100814.19;104633;1264;73562;-46
2023/05/08 06:06:56;;;;;;;0.80;0.50;;;;;;;9.26;100.00;100811.52;106083;1263;67943;-49
2023/05/08 06:09:22;;;;;;;0.60;0.40;;;;;;;9.34;100.00;100806.81;104743;1266;73230;-48
2023/05/08 06:11:50;;;;;;;0.60;0.40;;;;;;;9.43;100.00;100807.30;104412;1262;60824;-45
2023/05/08 06:14:17;;;;;;;1.60;0.50;;;;;;;9.52;100.00;100801.30;104123;1262;60831;-48
2023/05/08 06:16:44;;;;;;;2.30;0.50;;;;;;;9.61;100.00;100806.44;103884;1262;71475;-48
2023/05/08 06:19:11;;;;;;;1.60;0.50;;;;;;;9.68;100.00;100810.02;104073;1267;68475;-48
2023/05/08 06:21:38;;;;;;;1.70;0.50;;;;;;;9.71;100.00;100810.27;104717;1264;71338;-47
2023/05/08 06:24:06;;;;;;;1.00;0.50;;;;;;;9.75;100.00;100809.45;104684;1263;62728;-47
2023/05/08 06:26:33;;;;;;;2.70;0.60;;;;;;;9.83;100.00;100804.58;108248;1263;61051;-49
2023/05/08 06:29:00;;;;;;;0.60;0.40;;;;;;;9.86;100.00;100803.23;108343;1262;74009;-48
2023/05/08 06:31:26;;;;;;;1.70;0.60;;;;;;;9.86;100.00;100801.61;105924;1266;66572;-47
2023/05/08 06:33:53;;;;;;;0.80;0.50;;;;;;;9.82;100.00;100797.95;108204;1262;72782;-49
2023/05/08 06:36:20;;;;;;;4.40;0.60;;;;;;;9.85;100.00;100798.77;108343;1262;59281;-48
2023/05/08 06:38:47;;;;;;;1.40;0.50;;;;;;;9.94;100.00;100798.32;108372;1261;62288;-49
2023/05/08 06:41:13;;;;;;;2.10;0.60;;;;;;;10.06;100.00;100796.70;108390;1262;74015;-48
2023/05/08 06:43:41;;;;;;;3.90;0.50;;;;;;;10.18;100.00;100799.95;108376;1261;68640;-48
2023/05/08 06:46:07;;;;;;;1.70;0.80;;;;;;;10.31;100.00;100791.88;108469;1263;72729;-49
2023/05/08 06:48:34;;;;;;;0.80;0.50;;;;;;;10.45;100.00;100796.09;108578;1262;60217;-48
2023/05/08 06:51:01;;;;;;;4.30;0.60;;;;;;;10.57;100.00;100801.45;108381;1260;60833;-48
2023/05/08 06:53:28;;;;;;;0.90;0.60;;;;;;;10.67;100.00;100802.56;108432;1262;74153;-49
2023/05/08 06:55:56;;;;;;;4.70;0.90;;;;;;;10.76;100.00;100796.71;108508;1263;68155;-48
2023/05/08 06:58:23;;;;;;;1.30;0.70;;;;;;;10.85;100.00;100804.14;108470;1262;73163;-47
2023/05/08 07:00:50;;;;;;;1.60;0.50;;;;;;;10.94;100.00;100802.94;108516;1260;60680;-49
2023/05/08 07:03:16;;;;;;;2.80;0.70;;;;;;;10.93;100.00;100802.06;107855;1262;60254;-46
2023/05/08 07:05:43;;;;;;;2.70;0.60;;;;;;;10.96;100.00;100802.86;104307;1265;74547;-48
2023/05/08 07:08:10;;;;;;;2.30;0.60;;;;;;;11.02;100.00;100803.21;104326;1263;66316;-46
2023/05/08 07:10:36;;;;;;;3.50;0.70;;;;;;;11.11;100.00;100804.73;104738;1263;71965;-47
2023/05/08 07:13:03;;;;;;;5.00;0.50;;;;;;;11.20;100.00;100803.15;104828;1261;60592;-49
2023/05/08 07:15:31;;;;;;;2.30;0.70;;;;;;;11.26;100.00;100803.48;104805;1262;62130;-47
2023/05/08 07:17:57;;;;;;;1.40;0.60;;;;;;;11.26;100.00;100803.09;106677;1262;72674;-47
2023/05/08 07:20:24;;;;;;;1.20;0.60;;;;;;;11.28;100.00;100803.23;104750;1262;69281;-47
2023/05/08 07:22:51;;;;;;;2.40;0.40;;;;;;;11.33;100.00;100794.05;108388;1263;75256;-49
2023/05/08 07:25:18;;;;;;;0.70;0.60;;;;;;;11.37;100.00;100798.05;106097;1267;60701;-45
2023/05/08 07:27:45;;;;;;;1.10;0.50;;;;;;;11.42;100.00;100794.09;104792;1266;60732;-47
2023/05/08 07:30:12;;;;;;;2.50;0.50;;;;;;;11.46;100.00;100793.98;104743;1263;73983;-48
2023/05/08 07:32:38;;;;;;;1.60;0.50;;;;;;;11.49;100.00;100797.45;104760;1266;68569;-48
2023/05/08 07:35:08;;;;;;;0.90;0.60;;;;;;;11.50;100.00;100795.42;104716;1263;73714;-48
2023/05/08 07:37:38;;;;;;;0.80;0.40;;;;;;;11.54;100.00;100799.98;106921;1266;61698;-46
2023/05/08 07:40:07;;;;;;;0.70;0.50;;;;;;;11.59;100.00;100794.04;104823;1265;60856;-48
2023/05/08 07:42:39;;;;;;;1.60;0.50;;;;;;;11.65;100.00;100797.23;105027;1263;74637;-47
2023/05/08 07:45:07;;;;;;;0.70;0.50;;;;;;;11.72;100.00;100794.27;105109;1267;69353;-49
2023/05/08 07:47:34;;;;;;;1.70;0.70;;;;;;;11.76;100.00;100795.79;104829;1263;74614;-47
2023/05/08 07:50:01;;;;;;;3.60;0.40;;;;;;;11.76;100.00;100793.63;104843;1264;61382;-45
2023/05/08 07:52:28;;;;;;;2.70;0.60;;;;;;;11.81;100.00;100792.75;104740;1262;62844;-47
2023/05/08 07:54:54;;;;;;;0.70;0.50;;;;;;;11.81;100.00;100793.27;104851;1265;73907;-48
2023/05/08 07:57:21;;;;;;;0.50;0.40;;;;;;;11.80;100.00;100792.97;104714;1262;67483;-48
2023/05/08 07:59:48;;;;;;;5.30;0.50;;;;;;;11.82;100.00;100798.82;104801;1263;73431;-46
2023/05/08 08:02:14;;;;;;;3.70;0.60;;;;;;;11.88;100.00;100797.14;104842;1265;61478;-45
2023/05/08 08:04:41;;;;;;;0.60;0.40;;;;;;;11.92;100.00;100791.97;104798;1267;60453;-43
2023/05/08 08:07:08;;;;;;;0.60;0.50;;;;;;;11.97;100.00;100786.55;104911;1268;72542;-47
2023/05/08 08:09:35;;;;;;;2.40;0.50;;;;;;;12.03;100.00;100787.58;104654;1263;68787;-47
2023/05/08 08:12:02;;;;;;;2.90;0.50;;;;;;;12.03;100.00;100785.42;104677;1263;73386;-50
2023/05/08 08:14:28;;;;;;;0.70;0.40;;;;;;;12.02;100.00;100792.09;106740;1262;61344;-45
2023/05/08 08:16:55;;;;;;;3.10;0.50;;;;;;;12.08;100.00;100783.60;104545;1263;61335;-50
2023/05/08 08:19:22;;;;;;;0.70;0.70;;;;;;;12.16;100.00;100787.98;104900;1268;75249;-47
2023/05/08 08:21:49;;;;;;;5.80;0.70;;;;;;;12.25;100.00;100774.67;104504;1262;66316;-47
2023/05/08 08:24:16;;;;;;;3.30;0.60;;;;;;;12.37;100.00;100773.29;104921;1263;74136;-49
2023/05/08 08:26:43;;;;;;;0.60;0.50;;;;;;;12.49;100.00;100778.55;108392;1262;59694;-51
2023/05/08 08:29:10;;;;;;;1.90;0.50;;;;;;;12.57;100.00;100775.21;105357;1267;62665;-45
2023/05/08 08:31:37;;;;;;;1.40;0.60;;;;;;;12.66;100.00;100773.02;105245;1258;76434;-45
2023/05/08 08:34:04;;;;;;;0.60;0.40;;;;;;;12.75;100.00;100770.33;105303;1254;68730;-46
2023/05/08 08:36:31;;;;;;;1.10;0.50;;;;;;;12.80;100.00;100772.11;105365;1253;74673;-44
2023/05/08 08:38:58;;;;;;;2.50;0.40;;;;;;;12.84;100.00;100769.56;105359;1259;60496;-45
2023/05/08 08:41:26;;;;;;;1.40;0.60;;;;;;;12.84;100.00;100770.67;105457;1254;61691;-45
2023/05/08 08:43:54;;;;;;;1.30;0.40;;;;;;;12.79;100.00;100770.16;105487;1259;76699;-46
2023/05/08 08:46:26;;;;;;;2.40;0.50;;;;;;;12.68;100.00;100768.25;105276;1259;68564;-47
2023/05/08 08:48:55;;;;;;;2.20;0.70;;;;;;;12.60;100.00;100767.52;106451;1258;73445;-49
2023/05/08 08:51:30;;;;;;;0.60;0.50;;;;;;;12.58;100.00;100778.96;105758;1257;60543;-45
2023/05/08 08:54:12;;;;;;;0.70;0.50;;;;;;;12.58;100.00;100783.63;105995;1256;61154;-46
2023/05/08 08:56:43;;;;;;;1.90;0.50;;;;;;;12.46;100.00;100776.36;105662;1256;76049;-47
2023/05/08 08:59:11;;;;;;;5.00;0.50;;;;;;;12.35;100.00;100772.67;105325;1258;68293;-44
2023/05/08 09:01:38;;;;;;;1.20;0.40;;;;;;;12.30;100.00;100774.67;105134;1253;74650;-46
2023/05/08 09:04:05;;;;;;;4.30;0.50;;;;;;;12.31;100.00;100770.13;105503;1259;62209;-48
2023/05/08 09:06:34;;;;;;;1.20;0.60;;;;;;;12.32;100.00;100764.35;105718;1256;62374;-50
2023/05/08 09:09:01;;;;;;;0.60;0.40;;;;;;;12.32;100.00;100767.58;108611;1253;74299;-46
2023/05/08 09:11:28;;;;;;;1.50;0.40;;;;;;;12.33;100.00;100770.79;105258;1260;66036;-48
2023/05/08 09:13:54;;;;;;;0.40;0.30;;;;;;;12.36;100.00;100771.72;105242;1253;73148;-47
2023/05/08 09:16:22;;;;;;;0.90;0.50;;;;;;;12.44;100.00;100772.45;105295;1254;60949;-47
2023/05/08 09:18:49;;;;;;;1.40;0.40;;;;;;;12.56;100.00;100769.81;109024;1254;60164;-46
2023/05/08 09:21:16;;;;;;;0.50;0.40;;;;;;;12.67;100.00;100773.72;106255;1259;74982;-50
2023/05/08 09:23:59;;;;;;;0.70;0.40;;;;;;;12.74;100.00;100773.98;105300;1259;68972;-49
2023/05/08 09:26:34;;;;;;;1.10;0.50;;;;;;;12.73;100.00;100764.98;108876;1254;73625;-46
2023/05/08 09:29:17;;;;;;;1.10;0.30;;;;;;;12.74;100.00;100766.42;109086;1253;62272;-46
2023/05/08 09:31:45;;;;;;;1.40;0.40;;;;;;;12.75;100.00;100770.48;108866;1253;62436;-46
2023/05/08 09:34:26;;;;;;;0.70;0.40;;;;;;;12.76;100.00;100771.86;109015;1253;74268;-45
2023/05/08 09:37:12;;;;;;;2.30;0.40;;;;;;;12.78;100.00;100769.45;104988;1254;67623;-47
2023/05/08 09:39:40;;;;;;;0.60;0.50;;;;;;;12.80;100.00;100765.06;104770;1259;71209;-45
2023/05/08 09:42:07;;;;;;;1.20;0.40;;;;;;;12.83;100.00;100767.98;104896;1259;61087;-50
2023/05/08 09:44:50;;;;;;;0.80;0.40;;;;;;;12.89;100.00;100765.60;104794;1254;60524;-46
2023/05/08 09:47:21;;;;;;;1.30;0.40;;;;;;;12.98;100.00;100761.45;104828;1254;75964;-51
2023/05/08 09:50:03;;;;;;;4.30;0.40;;;;;;;13.02;100.00;100761.23;104847;1257;67388;-45
2023/05/08 09:52:30;;;;;;;3.00;0.40;;;;;;;13.03;100.00;100765.00;106551;1259;73348;-48
2023/05/08 09:55:04;;;;;;;0.60;0.50;;;;;;;12.99;100.00;100759.04;104885;1259;61277;-47
2023/05/08 09:57:31;;;;;;;1.20;0.50;;;;;;;12.98;100.00;100761.98;108894;1254;59156;-50
2023/05/08 10:00:08;;;;;;;0.80;0.40;;;;;;;13.01;100.00;100760.80;109040;1258;75808;-48
2023/05/08 10:02:37;;;;;;;2.50;0.50;;;;;;;13.00;100.00;100755.40;106557;1259;68948;-43
2023/05/08 10:05:21;;;;;;;0.70;0.40;;;;;;;13.04;100.00;100754.33;105821;1260;74214;-49
2023/05/08 10:07:48;;;;;;;1.20;0.40;;;;;;;13.13;100.00;100750.51;105192;1258;60806;-51
2023/05/08 10:10:21;;;;;;;0.60;0.50;;;;;;;13.22;100.00;100748.73;105201;1258;60394;-48
2023/05/08 10:12:47;;;;;;;1.30;0.50;;;;;;;13.30;100.00;100742.80;105213;1260;74397;-49
2023/05/08 10:15:14;;;;;;;2.70;0.40;;;;;;;13.39;100.00;100740.20;105489;1254;68354;-46
2023/05/08 10:17:56;;;;;;;0.50;0.30;;;;;;;13.48;100.00;100739.25;105349;1257;72879;-48
2023/05/08 10:20:24;;;;;;;1.00;0.40;;;;;;;13.54;100.00;100746.73;105799;1258;61935;-45
2023/05/08 10:22:51;;;;;;;2.90;0.40;;;;;;;13.53;100.00;100745.69;105295;1256;60551;-42
2023/05/08 10:25:18;;;;;;;3.00;0.40;;;;;;;13.51;100.00;100738.75;105334;1260;73117;-46
2023/05/08 10:27:56;;;;;;;1.30;0.50;;;;;;;13.50;100.00;100737.73;105285;1259;68469;-47
2023/05/08 10:30:24;;;;;;;0.70;0.50;;;;;;;13.44;100.00;100736.73;105199;1257;72771;-48
2023/05/08 10:32:55;;;;;;;3.30;0.40;;;;;;;13.36;100.00;100737.50;105958;1265;60112;-47
2023/05/08 10:35:22;;;;;;;0.50;0.30;;;;;;;13.29;100.00;100742.64;105410;1260;60424;-47
2023/05/08 10:37:49;;;;;;;2.10;0.50;;;;;;;13.26;100.00;100744.05;105192;1260;73157;-48
2023/05/08 10:40:15;;;;;;;3.20;0.40;;;;;;;13.20;100.00;100750.05;105283;1262;65836;-46
2023/05/08 10:42:42;;;;;;;0.80;0.40;;;;;;;13.17;100.00;100744.63;105315;1258;72040;-47
2023/05/08 10:45:09;;;;;;;0.40;0.30;;;;;;;13.19;100.00;100747.05;105279;1261;62496;-47
2023/05/08 10:47:59;;;;;;;1.90;0.40;;;;;;;13.24;100.00;100745.38;105831;1258;62540;-48
2023/05/08 10:50:55;;;;;;;2.90;0.40;;;;;;;13.33;100.00;100743.40;105249;1259;74764;-50
2023/05/08 10:53:36;;;;;;;1.10;0.30;;;;;;;13.37;100.00;100740.84;105304;1256;66624;-49
2023/05/08 10:56:03;;;;;;;0.90;0.30;;;;;;;13.35;100.00;100743.63;105349;1259;74811;-47
2023/05/08 10:58:31;;;;;;;3.30;0.40;;;;;;;13.29;100.00;100747.52;105418;1259;61163;-46
2023/05/08 11:01:07;;;;;;;0.60;0.30;;;;;;;13.18;100.00;100753.73;105289;1257;60357;-47
2023/05/08 11:03:44;;;;;;;4.30;0.40;;;;;;;13.04;100.00;100755.94;105225;1253;73099;-45
2023/05/08 11:06:12;;;;;;;1.60;0.80;;;;;;;12.96;100.00;100760.06;105180;1259;68294;-48
2023/05/08 11:08:45;;;;;;;0.80;0.40;;;;;;;12.90;100.00;100762.68;105231;1259;74908;-50
2023/05/08 11:11:16;;;;;;;1.00;0.40;;;;;;;12.83;100.00;100765.31;105516;1254;61015;-45
2023/05/08 11:13:49;;;;;;;2.10;0.30;;;;;;;12.80;100.00;100769.20;105388;1255;60406;-46
2023/05/08 11:16:15;;;;;;;6.00;0.60;;;;;;;12.81;100.00;100767.20;105342;1254;72500;-47
2023/05/08 11:19:17;;;;;;;1.80;0.40;;;;;;;12.80;100.00;100767.05;105387;1258;68003;-49
2023/05/08 11:22:10;;;;;;;1.60;0.30;;;;;;;12.83;100.00;100764.26;105422;1259;70955;-49
2023/05/08 11:24:58;;;;;;;0.60;0.40;;;;;;;12.87;100.00;100761.52;105301;1267;60956;-46
2023/05/08 11:27:32;;;;;;;2.00;0.30;;;;;;;12.86;100.00;100758.30;105440;1253;60429;-49
2023/05/08 11:30:21;;;;;;;0.60;0.40;;;;;;;12.86;100.00;100756.52;106721;1259;75119;-48